Fontana, California
Current Conditions -  °F | °C
As of 5:53 PM on Sunday 21 Dec 2014 (Local Time) from KONT Reporting Station
Haze Haze  
Wind Chill: 60°   Ceiling: Unl
Heat Index: 60°   Visibility: 6mi
Dew Point: 49°   Wind: 0mph
Humidity: 67%   Direction: NA
Pressure: 30.05"   Gusts: NA
Location:  34.1°N, 117.43°W
Report Text: KONT 220153Z 00000KT 6SM HZ FEW180 SCT240 16/09 A3005 RMK AO2 SLP174 T01560094
Loading
Personal Weather Stations






























Interactive Weather Map New forecast layout! Learn more

10-Day Weather Forecast

Advertisements
Track Severe Weather on mobile